sensor_id;sensor_type;location;lat;lon;timestamp;P1;durP1;ratioP1;P2;durP2;ratioP2
15528;SDS011;7866;52.280;9.500;2024-01-25T00:01:30;20.00;;;5.43;;
15528;SDS011;7866;52.280;9.500;2024-01-25T00:06:33;21.27;;;4.57;;
15528;SDS011;7866;52.280;9.500;2024-01-25T00:11:35;23.37;;;5.60;;
15528;SDS011;7866;52.280;9.500;2024-01-25T00:16:40;19.27;;;5.17;;
15528;SDS011;7866;52.280;9.500;2024-01-25T00:21:43;19.87;;;5.17;;
15528;SDS011;7866;52.280;9.500;2024-01-25T00:26:45;19.20;;;5.40;;
15528;SDS011;7866;52.280;9.500;2024-01-25T00:31:47;18.93;;;6.33;;
15528;SDS011;7866;52.280;9.500;2024-01-25T00:36:50;24.27;;;6.73;;
15528;SDS011;7866;52.280;9.500;2024-01-25T00:41:56;20.07;;;5.20;;
15528;SDS011;7866;52.280;9.500;2024-01-25T00:47:03;20.57;;;5.07;;
15528;SDS011;7866;52.280;9.500;2024-01-25T00:52:07;22.93;;;6.10;;
15528;SDS011;7866;52.280;9.500;2024-01-25T00:57:10;19.70;;;5.80;;
15528;SDS011;7866;52.280;9.500;2024-01-25T01:02:12;19.20;;;5.67;;
15528;SDS011;7866;52.280;9.500;2024-01-25T01:07:16;18.63;;;4.50;;
15528;SDS011;7866;52.280;9.500;2024-01-25T01:12:18;18.13;;;4.63;;
15528;SDS011;7866;52.280;9.500;2024-01-25T01:17:20;19.37;;;5.20;;
15528;SDS011;7866;52.280;9.500;2024-01-25T01:22:23;15.50;;;4.70;;
15528;SDS011;7866;52.280;9.500;2024-01-25T01:27:25;16.60;;;5.00;;
15528;SDS011;7866;52.280;9.500;2024-01-25T01:32:26;21.80;;;4.80;;
15528;SDS011;7866;52.280;9.500;2024-01-25T01:37:29;21.53;;;5.03;;
15528;SDS011;7866;52.280;9.500;2024-01-25T01:42:31;19.77;;;4.70;;
15528;SDS011;7866;52.280;9.500;2024-01-25T01:47:34;17.83;;;4.70;;
15528;SDS011;7866;52.280;9.500;2024-01-25T01:52:37;21.40;;;5.60;;
15528;SDS011;7866;52.280;9.500;2024-01-25T01:57:39;19.67;;;4.97;;
15528;SDS011;7866;52.280;9.500;2024-01-25T02:02:42;20.47;;;4.70;;
15528;SDS011;7866;52.280;9.500;2024-01-25T02:07:45;21.03;;;5.57;;
15528;SDS011;7866;52.280;9.500;2024-01-25T02:12:47;20.17;;;5.50;;
15528;SDS011;7866;52.280;9.500;2024-01-25T02:17:48;20.07;;;4.63;;
15528;SDS011;7866;52.280;9.500;2024-01-25T02:22:51;22.23;;;5.40;;
15528;SDS011;7866;52.280;9.500;2024-01-25T02:27:53;19.17;;;5.17;;
15528;SDS011;7866;52.280;9.500;2024-01-25T02:32:55;18.40;;;4.53;;
15528;SDS011;7866;52.280;9.500;2024-01-25T02:37:58;21.07;;;5.53;;
15528;SDS011;7866;52.280;9.500;2024-01-25T02:43:00;14.90;;;4.80;;
15528;SDS011;7866;52.280;9.500;2024-01-25T02:48:01;20.00;;;4.50;;
15528;SDS011;7866;52.280;9.500;2024-01-25T02:53:05;22.27;;;5.67;;
15528;SDS011;7866;52.280;9.500;2024-01-25T02:58:06;24.47;;;4.73;;
15528;SDS011;7866;52.280;9.500;2024-01-25T03:03:08;14.50;;;4.47;;
15528;SDS011;7866;52.280;9.500;2024-01-25T03:08:11;11.03;;;3.90;;
15528;SDS011;7866;52.280;9.500;2024-01-25T03:13:13;18.33;;;4.80;;
15528;SDS011;7866;52.280;9.500;2024-01-25T03:18:14;19.67;;;4.70;;
15528;SDS011;7866;52.280;9.500;2024-01-25T03:23:17;20.33;;;4.47;;
15528;SDS011;7866;52.280;9.500;2024-01-25T03:28:19;19.47;;;5.10;;
15528;SDS011;7866;52.280;9.500;2024-01-25T03:33:20;22.10;;;4.57;;
15528;SDS011;7866;52.280;9.500;2024-01-25T03:38:23;20.10;;;4.57;;
15528;SDS011;7866;52.280;9.500;2024-01-25T03:43:26;25.77;;;5.30;;
15528;SDS011;7866;52.280;9.500;2024-01-25T03:48:28;22.83;;;4.97;;
15528;SDS011;7866;52.280;9.500;2024-01-25T03:53:31;18.57;;;4.60;;
15528;SDS011;7866;52.280;9.500;2024-01-25T03:58:33;21.60;;;5.00;;
15528;SDS011;7866;52.280;9.500;2024-01-25T08:13:41;27.73;;;6.07;;
15528;SDS011;7866;52.280;9.500;2024-01-25T08:18:44;16.97;;;4.30;;
15528;SDS011;7866;52.280;9.500;2024-01-25T08:23:46;25.97;;;5.63;;
15528;SDS011;7866;52.280;9.500;2024-01-25T08:28:49;27.33;;;5.47;;
15528;SDS011;7866;52.280;9.500;2024-01-25T08:33:51;23.07;;;5.43;;
15528;SDS011;7866;52.280;9.500;2024-01-25T08:38:53;18.33;;;4.50;;
15528;SDS011;7866;52.280;9.500;2024-01-25T08:43:56;25.17;;;5.13;;
15528;SDS011;7866;52.280;9.500;2024-01-25T08:48:57;18.97;;;4.77;;
15528;SDS011;7866;52.280;9.500;2024-01-25T08:53:59;21.13;;;5.27;;
15528;SDS011;7866;52.280;9.500;2024-01-25T09:04:05;14.73;;;4.17;;
15528;SDS011;7866;52.280;9.500;2024-01-25T09:09:07;20.33;;;4.97;;
15528;SDS011;7866;52.280;9.500;2024-01-25T09:14:10;17.73;;;4.47;;
15528;SDS011;7866;52.280;9.500;2024-01-25T09:19:13;19.27;;;4.97;;
15528;SDS011;7866;52.280;9.500;2024-01-25T09:24:15;19.10;;;4.43;;
15528;SDS011;7866;52.280;9.500;2024-01-25T09:29:17;17.70;;;5.13;;
15528;SDS011;7866;52.280;9.500;2024-01-25T09:34:20;20.93;;;5.33;;
15528;SDS011;7866;52.280;9.500;2024-01-25T09:39:22;23.33;;;5.37;;
15528;SDS011;7866;52.280;9.500;2024-01-25T09:44:24;16.63;;;4.87;;
15528;SDS011;7866;52.280;9.500;2024-01-25T09:49:27;21.03;;;5.50;;
15528;SDS011;7866;52.280;9.500;2024-01-25T09:54:29;13.77;;;4.53;;
15528;SDS011;7866;52.280;9.500;2024-01-25T09:59:33;16.17;;;5.03;;
15528;SDS011;7866;52.280;9.500;2024-01-25T10:04:36;18.23;;;4.37;;
15528;SDS011;7866;52.280;9.500;2024-01-25T10:09:38;24.20;;;4.87;;
15528;SDS011;7866;52.280;9.500;2024-01-25T10:14:40;20.23;;;5.70;;
15528;SDS011;7866;52.280;9.500;2024-01-25T10:19:44;21.40;;;5.20;;
15528;SDS011;7866;52.280;9.500;2024-01-25T10:24:45;18.43;;;4.57;;
15528;SDS011;7866;52.280;9.500;2024-01-25T10:29:50;19.93;;;4.70;;
15528;SDS011;7866;52.280;9.500;2024-01-25T10:34:53;18.30;;;4.70;;
15528;SDS011;7866;52.280;9.500;2024-01-25T10:39:55;16.47;;;4.60;;
15528;SDS011;7866;52.280;9.500;2024-01-25T10:44:56;21.90;;;4.97;;
15528;SDS011;7866;52.280;9.500;2024-01-25T10:50:00;12.83;;;4.00;;
15528;SDS011;7866;52.280;9.500;2024-01-25T10:55:02;17.20;;;4.73;;
15528;SDS011;7866;52.280;9.500;2024-01-25T11:00:06;21.33;;;5.47;;
15528;SDS011;7866;52.280;9.500;2024-01-25T11:05:12;14.97;;;4.53;;
15528;SDS011;7866;52.280;9.500;2024-01-25T11:10:16;15.83;;;4.43;;
15528;SDS011;7866;52.280;9.500;2024-01-25T11:15:22;19.13;;;4.43;;
15528;SDS011;7866;52.280;9.500;2024-01-25T11:20:27;18.13;;;4.40;;
15528;SDS011;7866;52.280;9.500;2024-01-25T11:25:30;14.07;;;4.40;;
15528;SDS011;7866;52.280;9.500;2024-01-25T11:30:34;18.90;;;4.63;;
15528;SDS011;7866;52.280;9.500;2024-01-25T11:35:37;27.53;;;5.67;;
15528;SDS011;7866;52.280;9.500;2024-01-25T11:40:39;16.77;;;4.70;;
15528;SDS011;7866;52.280;9.500;2024-01-25T11:45:41;14.43;;;4.20;;
15528;SDS011;7866;52.280;9.500;2024-01-25T11:50:45;18.63;;;4.43;;
15528;SDS011;7866;52.280;9.500;2024-01-25T11:55:47;14.40;;;4.00;;
15528;SDS011;7866;52.280;9.500;2024-01-25T12:00:48;18.90;;;4.40;;
15528;SDS011;7866;52.280;9.500;2024-01-25T12:05:52;16.80;;;5.00;;
15528;SDS011;7866;52.280;9.500;2024-01-25T12:11:02;13.80;;;4.13;;
15528;SDS011;7866;52.280;9.500;2024-01-25T12:16:05;19.10;;;4.23;;
15528;SDS011;7866;52.280;9.500;2024-01-25T12:21:08;15.93;;;3.87;;
15528;SDS011;7866;52.280;9.500;2024-01-25T12:26:10;16.27;;;4.77;;
15528;SDS011;7866;52.280;9.500;2024-01-25T12:31:12;14.93;;;3.77;;
15528;SDS011;7866;52.280;9.500;2024-01-25T12:36:15;14.30;;;4.27;;
15528;SDS011;7866;52.280;9.500;2024-01-25T12:41:16;14.43;;;3.63;;
15528;SDS011;7866;52.280;9.500;2024-01-25T12:46:18;13.30;;;4.00;;
15528;SDS011;7866;52.280;9.500;2024-01-25T12:51:21;19.00;;;4.20;;
15528;SDS011;7866;52.280;9.500;2024-01-25T12:56:23;18.53;;;4.47;;
15528;SDS011;7866;52.280;9.500;2024-01-25T13:01:24;15.97;;;4.03;;
15528;SDS011;7866;52.280;9.500;2024-01-25T13:06:28;14.30;;;3.87;;
15528;SDS011;7866;52.280;9.500;2024-01-25T13:11:30;16.83;;;4.20;;
15528;SDS011;7866;52.280;9.500;2024-01-25T13:16:32;17.87;;;4.37;;
15528;SDS011;7866;52.280;9.500;2024-01-25T13:21:35;18.50;;;4.83;;
15528;SDS011;7866;52.280;9.500;2024-01-25T13:26:37;16.97;;;4.37;;
15528;SDS011;7866;52.280;9.500;2024-01-25T13:31:38;14.87;;;4.30;;
15528;SDS011;7866;52.280;9.500;2024-01-25T13:36:41;16.73;;;4.13;;
15528;SDS011;7866;52.280;9.500;2024-01-25T13:41:43;15.13;;;4.50;;
15528;SDS011;7866;52.280;9.500;2024-01-25T13:46:46;14.73;;;4.20;;
15528;SDS011;7866;52.280;9.500;2024-01-25T13:51:49;11.33;;;3.57;;
15528;SDS011;7866;52.280;9.500;2024-01-25T13:56:51;15.40;;;3.93;;
15528;SDS011;7866;52.280;9.500;2024-01-25T14:01:54;14.33;;;3.93;;
15528;SDS011;7866;52.280;9.500;2024-01-25T14:06:57;14.70;;;4.20;;
15528;SDS011;7866;52.280;9.500;2024-01-25T14:11:59;14.03;;;3.97;;
15528;SDS011;7866;52.280;9.500;2024-01-25T14:17:01;14.23;;;4.00;;
15528;SDS011;7866;52.280;9.500;2024-01-25T14:22:04;16.90;;;4.40;;
15528;SDS011;7866;52.280;9.500;2024-01-25T14:27:06;12.10;;;3.73;;
15528;SDS011;7866;52.280;9.500;2024-01-25T14:32:07;14.47;;;3.90;;
15528;SDS011;7866;52.280;9.500;2024-01-25T14:37:10;10.00;;;3.33;;
15528;SDS011;7866;52.280;9.500;2024-01-25T14:42:12;13.20;;;4.00;;
15528;SDS011;7866;52.280;9.500;2024-01-25T14:47:14;9.97;;;3.43;;
15528;SDS011;7866;52.280;9.500;2024-01-25T14:52:21;15.80;;;4.03;;
15528;SDS011;7866;52.280;9.500;2024-01-25T14:57:23;18.40;;;4.30;;
15528;SDS011;7866;52.280;9.500;2024-01-25T15:02:25;18.67;;;4.73;;
15528;SDS011;7866;52.280;9.500;2024-01-25T15:07:28;14.30;;;4.00;;
15528;SDS011;7866;52.280;9.500;2024-01-25T15:12:29;14.53;;;4.60;;
15528;SDS011;7866;52.280;9.500;2024-01-25T15:17:31;14.03;;;3.67;;
15528;SDS011;7866;52.280;9.500;2024-01-25T15:22:34;13.20;;;3.70;;
15528;SDS011;7866;52.280;9.500;2024-01-25T15:27:36;13.43;;;4.20;;
15528;SDS011;7866;52.280;9.500;2024-01-25T15:32:37;12.33;;;3.93;;
15528;SDS011;7866;52.280;9.500;2024-01-25T15:37:42;15.80;;;3.97;;
15528;SDS011;7866;52.280;9.500;2024-01-25T15:42:44;10.63;;;3.60;;
15528;SDS011;7866;52.280;9.500;2024-01-25T15:47:51;15.67;;;4.13;;
15528;SDS011;7866;52.280;9.500;2024-01-25T15:52:56;14.17;;;3.97;;
15528;SDS011;7866;52.280;9.500;2024-01-25T15:57:58;15.73;;;3.70;;
15528;SDS011;7866;52.280;9.500;2024-01-25T16:03:00;13.97;;;3.80;;
15528;SDS011;7866;52.280;9.500;2024-01-25T16:08:03;14.37;;;3.70;;
15528;SDS011;7866;52.280;9.500;2024-01-25T16:13:05;16.67;;;4.07;;
15528;SDS011;7866;52.280;9.500;2024-01-25T16:18:06;14.63;;;4.20;;
15528;SDS011;7866;52.280;9.500;2024-01-25T16:23:09;16.23;;;4.30;;
15528;SDS011;7866;52.280;9.500;2024-01-25T16:28:13;15.80;;;5.00;;
15528;SDS011;7866;52.280;9.500;2024-01-25T16:33:15;17.13;;;4.40;;
15528;SDS011;7866;52.280;9.500;2024-01-25T16:38:18;16.47;;;5.30;;
15528;SDS011;7866;52.280;9.500;2024-01-25T16:43:19;24.10;;;6.10;;
15528;SDS011;7866;52.280;9.500;2024-01-25T16:48:22;17.83;;;6.67;;
15528;SDS011;7866;52.280;9.500;2024-01-25T16:53:25;23.73;;;7.70;;
15528;SDS011;7866;52.280;9.500;2024-01-25T16:58:26;21.43;;;7.77;;
15528;SDS011;7866;52.280;9.500;2024-01-25T17:03:28;23.70;;;9.00;;
15528;SDS011;7866;52.280;9.500;2024-01-25T17:08:32;26.77;;;8.77;;
15528;SDS011;7866;52.280;9.500;2024-01-25T17:13:34;23.23;;;9.60;;
15528;SDS011;7866;52.280;9.500;2024-01-25T17:18:35;25.00;;;8.50;;
15528;SDS011;7866;52.280;9.500;2024-01-25T17:23:38;27.50;;;8.87;;
15528;SDS011;7866;52.280;9.500;2024-01-25T17:28:40;15.20;;;7.33;;
15528;SDS011;7866;52.280;9.500;2024-01-25T17:33:42;26.43;;;8.90;;
15528;SDS011;7866;52.280;9.500;2024-01-25T17:38:46;19.70;;;7.87;;
15528;SDS011;7866;52.280;9.500;2024-01-25T17:43:48;23.20;;;8.77;;
15528;SDS011;7866;52.280;9.500;2024-01-25T17:48:50;23.43;;;8.37;;
15528;SDS011;7866;52.280;9.500;2024-01-25T17:53:53;25.53;;;8.23;;
15528;SDS011;7866;52.280;9.500;2024-01-25T17:58:55;21.17;;;7.87;;
15528;SDS011;7866;52.280;9.500;2024-01-25T18:03:59;21.43;;;7.27;;
15528;SDS011;7866;52.280;9.500;2024-01-25T18:09:02;19.80;;;7.23;;
15528;SDS011;7866;52.280;9.500;2024-01-25T18:14:04;22.30;;;7.27;;
15528;SDS011;7866;52.280;9.500;2024-01-25T18:19:05;21.80;;;7.73;;
15528;SDS011;7866;52.280;9.500;2024-01-25T18:24:08;19.83;;;7.93;;
15528;SDS011;7866;52.280;9.500;2024-01-25T18:29:10;19.33;;;6.50;;
15528;SDS011;7866;52.280;9.500;2024-01-25T18:34:12;20.13;;;7.00;;
15528;SDS011;7866;52.280;9.500;2024-01-25T18:39:15;22.47;;;6.33;;
15528;SDS011;7866;52.280;9.500;2024-01-25T18:44:18;20.97;;;8.17;;
15528;SDS011;7866;52.280;9.500;2024-01-25T18:49:20;16.30;;;6.57;;
15528;SDS011;7866;52.280;9.500;2024-01-25T18:54:23;19.20;;;6.63;;
15528;SDS011;7866;52.280;9.500;2024-01-25T18:59:26;19.20;;;5.90;;
15528;SDS011;7866;52.280;9.500;2024-01-25T19:04:28;17.93;;;5.63;;
15528;SDS011;7866;52.280;9.500;2024-01-25T19:09:31;17.40;;;5.70;;
15528;SDS011;7866;52.280;9.500;2024-01-25T19:14:35;12.90;;;4.77;;
15528;SDS011;7866;52.280;9.500;2024-01-25T19:19:36;18.10;;;5.87;;
15528;SDS011;7866;52.280;9.500;2024-01-25T19:24:40;14.17;;;5.27;;
15528;SDS011;7866;52.280;9.500;2024-01-25T19:29:41;21.60;;;5.10;;
15528;SDS011;7866;52.280;9.500;2024-01-25T19:34:43;15.97;;;5.43;;
15528;SDS011;7866;52.280;9.500;2024-01-25T19:39:46;17.77;;;6.80;;
15528;SDS011;7866;52.280;9.500;2024-01-25T19:44:47;19.63;;;7.80;;
15528;SDS011;7866;52.280;9.500;2024-01-25T19:49:49;19.13;;;6.20;;
15528;SDS011;7866;52.280;9.500;2024-01-25T19:54:53;15.87;;;6.10;;
15528;SDS011;7866;52.280;9.500;2024-01-25T19:59:55;18.43;;;6.00;;
15528;SDS011;7866;52.280;9.500;2024-01-25T20:04:57;18.60;;;6.17;;
15528;SDS011;7866;52.280;9.500;2024-01-25T20:10:00;18.00;;;6.20;;
15528;SDS011;7866;52.280;9.500;2024-01-25T20:15:02;17.53;;;5.30;;
15528;SDS011;7866;52.280;9.500;2024-01-25T20:20:05;22.87;;;6.47;;
15528;SDS011;7866;52.280;9.500;2024-01-25T20:25:09;16.13;;;4.53;;
15528;SDS011;7866;52.280;9.500;2024-01-25T20:30:11;14.47;;;4.93;;
15528;SDS011;7866;52.280;9.500;2024-01-25T20:35:13;20.07;;;5.20;;
15528;SDS011;7866;52.280;9.500;2024-01-25T20:40:16;19.37;;;6.43;;
15528;SDS011;7866;52.280;9.500;2024-01-25T20:45:18;14.53;;;5.30;;
15528;SDS011;7866;52.280;9.500;2024-01-25T20:50:21;20.07;;;5.40;;
15528;SDS011;7866;52.280;9.500;2024-01-25T20:55:24;17.90;;;5.27;;
15528;SDS011;7866;52.280;9.500;2024-01-25T21:00:26;16.03;;;5.03;;
15528;SDS011;7866;52.280;9.500;2024-01-25T21:05:28;15.40;;;4.70;;
15528;SDS011;7866;52.280;9.500;2024-01-25T21:10:32;15.77;;;4.77;;
15528;SDS011;7866;52.280;9.500;2024-01-25T21:15:34;21.07;;;5.43;;
15528;SDS011;7866;52.280;9.500;2024-01-25T21:20:35;17.10;;;5.67;;
15528;SDS011;7866;52.280;9.500;2024-01-25T21:25:38;19.70;;;4.93;;
15528;SDS011;7866;52.280;9.500;2024-01-25T21:30:40;17.53;;;5.60;;
15528;SDS011;7866;52.280;9.500;2024-01-25T21:35:42;18.13;;;5.00;;
15528;SDS011;7866;52.280;9.500;2024-01-25T21:40:45;20.10;;;5.13;;
15528;SDS011;7866;52.280;9.500;2024-01-25T21:45:46;17.63;;;5.63;;
15528;SDS011;7866;52.280;9.500;2024-01-25T21:50:48;14.77;;;4.80;;
15528;SDS011;7866;52.280;9.500;2024-01-25T21:55:51;13.30;;;4.87;;
15528;SDS011;7866;52.280;9.500;2024-01-25T22:00:53;17.63;;;4.93;;
15528;SDS011;7866;52.280;9.500;2024-01-25T22:05:54;17.43;;;4.53;;
15528;SDS011;7866;52.280;9.500;2024-01-25T22:10:57;14.90;;;5.30;;
15528;SDS011;7866;52.280;9.500;2024-01-25T22:15:59;17.40;;;4.43;;
15528;SDS011;7866;52.280;9.500;2024-01-25T22:21:01;13.67;;;4.37;;
15528;SDS011;7866;52.280;9.500;2024-01-25T22:26:05;11.97;;;4.30;;
15528;SDS011;7866;52.280;9.500;2024-01-25T22:31:06;16.57;;;4.30;;
15528;SDS011;7866;52.280;9.500;2024-01-25T22:36:09;17.63;;;4.83;;
15528;SDS011;7866;52.280;9.500;2024-01-25T22:41:13;14.63;;;4.70;;
15528;SDS011;7866;52.280;9.500;2024-01-25T22:46:14;16.80;;;4.63;;
15528;SDS011;7866;52.280;9.500;2024-01-25T22:51:16;15.03;;;4.53;;
15528;SDS011;7866;52.280;9.500;2024-01-25T22:56:19;11.80;;;4.43;;
15528;SDS011;7866;52.280;9.500;2024-01-25T23:01:21;10.30;;;3.90;;
15528;SDS011;7866;52.280;9.500;2024-01-25T23:06:22;17.87;;;4.97;;
15528;SDS011;7866;52.280;9.500;2024-01-25T23:11:25;18.20;;;4.73;;
15528;SDS011;7866;52.280;9.500;2024-01-25T23:16:27;13.10;;;4.20;;
15528;SDS011;7866;52.280;9.500;2024-01-25T23:21:29;14.27;;;4.63;;
15528;SDS011;7866;52.280;9.500;2024-01-25T23:26:33;14.90;;;4.37;;
15528;SDS011;7866;52.280;9.500;2024-01-25T23:31:35;16.73;;;4.00;;
15528;SDS011;7866;52.280;9.500;2024-01-25T23:36:36;11.97;;;4.30;;
15528;SDS011;7866;52.280;9.500;2024-01-25T23:41:40;12.10;;;4.63;;
15528;SDS011;7866;52.280;9.500;2024-01-25T23:46:42;15.97;;;4.53;;
15528;SDS011;7866;52.280;9.500;2024-01-25T23:51:44;13.43;;;4.33;;
15528;SDS011;7866;52.280;9.500;2024-01-25T23:56:48;10.83;;;4.20;;
